Time;durP1;ratioP1;P1;durP2;ratioP2;P2;SDS_P1;SDS_P2;PMS_P1;PMS_P2;Temp;Humidity;BMP_temperature;BMP_pressure;BME280_temperature;BME280_humidity;BME280_pressure;Samples;Min_cycle;Max_cycle;Signal;HPM_P1;HPM_P2
2023/02/08 00:02:13;;;;;;;12.70;7.03;;;;;;;;;;5052083;28;20029;-68
2023/02/08 00:04:38;;;;;;;10.93;6.27;;;;;;;;;;5037163;28;20471;-66
2023/02/08 00:07:22;;;;;;;12.70;6.60;;;;;;;;;;5069081;28;20043;-66
2023/02/08 00:09:48;;;;;;;13.53;6.70;;;;;;;;;;5036358;28;20044;-66
2023/02/08 00:12:13;;;;;;;13.33;6.97;;;;;;;;;;5070556;28;20032;-66
2023/02/08 00:14:39;;;;;;;11.47;6.50;;;;;;;;;;5055047;28;20051;-66
2023/02/08 00:17:05;;;;;;;12.53;7.37;;;;;;;;;;5036925;28;20056;-66
2023/02/08 00:19:30;;;;;;;14.67;6.93;;;;;;;;;;5037623;28;20048;-66
2023/02/08 00:21:56;;;;;;;13.17;6.77;;;;;;;;;;5037768;28;20044;-66
2023/02/08 00:24:22;;;;;;;12.00;6.70;;;;;;;;;;5037680;28;20086;-66
2023/02/08 00:26:47;;;;;;;16.67;7.83;;;;;;;;;;5054303;28;20039;-66
2023/02/08 00:29:13;;;;;;;12.17;7.23;;;;;;;;;;5037655;28;20063;-67
2023/02/08 00:31:39;;;;;;;13.20;7.77;;;;;;;;;;5037278;28;20059;-66
2023/02/08 00:34:04;;;;;;;12.40;6.97;;;;;;;;;;5053880;28;20092;-67
2023/02/08 00:36:30;;;;;;;12.53;7.53;;;;;;;;;;5037330;28;20028;-66
2023/02/08 00:38:56;;;;;;;13.00;7.00;;;;;;;;;;5070722;28;20106;-66
2023/02/08 00:41:22;;;;;;;11.93;6.57;;;;;;;;;;5037151;28;20048;-68
2023/02/08 00:43:47;;;;;;;11.30;6.83;;;;;;;;;;5037485;28;20474;-67
2023/02/08 00:46:14;;;;;;;10.07;6.00;;;;;;;;;;5054063;28;20037;-67
2023/02/08 00:48:39;;;;;;;10.37;6.37;;;;;;;;;;5087581;28;20039;-68
2023/02/08 00:51:08;;;;;;;10.93;6.77;;;;;;;;;;5037250;28;20036;-68
2023/02/08 00:53:36;;;;;;;12.67;6.90;;;;;;;;;;5037370;28;20811;-68
2023/02/08 00:56:01;;;;;;;11.07;6.37;;;;;;;;;;5049472;28;20035;-67
2023/02/08 00:58:27;;;;;;;11.63;6.40;;;;;;;;;;5055652;28;20055;-68
2023/02/08 01:00:54;;;;;;;11.13;6.17;;;;;;;;;;5072673;28;20032;-67
2023/02/08 01:03:20;;;;;;;12.87;6.77;;;;;;;;;;5072903;28;20408;-67
2023/02/08 01:05:46;;;;;;;10.73;6.03;;;;;;;;;;5076255;28;20036;-68
2023/02/08 01:08:12;;;;;;;9.97;6.10;;;;;;;;;;5059937;28;20032;-67
2023/02/08 01:10:37;;;;;;;10.13;5.73;;;;;;;;;;5059579;28;20048;-67
2023/02/08 01:13:05;;;;;;;9.73;5.50;;;;;;;;;;5060940;28;20032;-74
2023/02/08 01:15:32;;;;;;;10.63;5.70;;;;;;;;;;5077103;28;20055;-66
2023/02/08 01:18:00;;;;;;;12.27;6.10;;;;;;;;;;5060693;28;20429;-66
2023/02/08 01:20:26;;;;;;;9.97;6.07;;;;;;;;;;5077057;28;20036;-67
2023/02/08 01:22:51;;;;;;;8.93;5.67;;;;;;;;;;5077192;28;20127;-68
2023/02/08 01:25:17;;;;;;;12.30;5.80;;;;;;;;;;5059422;28;20055;-67
2023/02/08 01:27:44;;;;;;;9.83;5.03;;;;;;;;;;5060704;28;20032;-67
2023/02/08 01:30:12;;;;;;;10.07;5.73;;;;;;;;;;5077333;28;20032;-66
2023/02/08 01:32:37;;;;;;;10.00;5.97;;;;;;;;;;5058968;28;20085;-65
2023/02/08 01:35:03;;;;;;;9.30;5.60;;;;;;;;;;5075407;28;20040;-66
2023/02/08 01:37:31;;;;;;;10.13;5.70;;;;;;;;;;5056686;28;20039;-65
2023/02/08 01:39:57;;;;;;;7.70;5.10;;;;;;;;;;5050155;28;20044;-67
2023/02/08 01:42:22;;;;;;;8.90;5.40;;;;;;;;;;5075466;28;20027;-67
2023/02/08 01:45:19;;;;;;;9.60;6.03;;;;;;;;;;5073027;28;20042;-68
2023/02/08 01:47:47;;;;;;;9.53;5.30;;;;;;;;;;5046850;28;20089;-66
2023/02/08 01:50:14;;;;;;;8.73;5.67;;;;;;;;;;5059511;28;20437;-68
2023/02/08 01:52:41;;;;;;;10.10;5.77;;;;;;;;;;5076449;28;20036;-68
2023/02/08 01:55:10;;;;;;;8.97;5.47;;;;;;;;;;5076404;28;20064;-70
2023/02/08 01:57:38;;;;;;;10.90;6.30;;;;;;;;;;5060166;28;20039;-69
2023/02/08 02:00:12;;;;;;;9.83;5.80;;;;;;;;;;5076329;28;20386;-69
2023/02/08 02:02:42;;;;;;;9.63;5.87;;;;;;;;;;5060133;28;20047;-69
2023/02/08 02:05:08;;;;;;;11.10;6.03;;;;;;;;;;5076304;28;20104;-69
2023/02/08 02:07:35;;;;;;;9.70;6.20;;;;;;;;;;5076157;28;20043;-69
2023/02/08 02:10:19;;;;;;;8.40;5.70;;;;;;;;;;5076118;28;20040;-69
2023/02/08 02:12:46;;;;;;;9.43;5.83;;;;;;;;;;5076424;28;20070;-69
2023/02/08 02:15:11;;;;;;;10.87;6.53;;;;;;;;;;5077380;27;20043;-70
2023/02/08 02:17:38;;;;;;;12.53;6.50;;;;;;;;;;5082753;27;20035;-70
2023/02/08 02:20:15;;;;;;;11.13;6.40;;;;;;;;;;5082908;27;20039;-70
2023/02/08 02:22:43;;;;;;;11.53;6.50;;;;;;;;;;5099817;27;20070;-69
2023/02/08 02:25:21;;;;;;;13.30;6.20;;;;;;;;;;5081233;27;20062;-69
2023/02/08 02:27:47;;;;;;;13.97;6.23;;;;;;;;;;5082991;27;20042;-70
2023/02/08 02:30:35;;;;;;;10.60;6.03;;;;;;;;;;5083006;27;20027;-69
2023/02/08 02:33:16;;;;;;;9.87;6.07;;;;;;;;;;5115350;27;20031;-69
2023/02/08 02:35:59;;;;;;;10.80;6.13;;;;;;;;;;5083098;27;20035;-68
2023/02/08 02:38:31;;;;;;;10.50;6.03;;;;;;;;;;5099216;27;20480;-67
2023/02/08 02:41:03;;;;;;;10.67;6.13;;;;;;;;;;5082253;27;20066;-68
2023/02/08 02:43:41;;;;;;;11.07;5.63;;;;;;;;;;5099129;27;20039;-68
2023/02/08 02:46:26;;;;;;;10.63;6.10;;;;;;;;;;5082192;27;20118;-68
2023/02/08 02:49:10;;;;;;;8.93;5.70;;;;;;;;;;5098650;27;20457;-68
2023/02/08 02:51:45;;;;;;;10.20;6.03;;;;;;;;;;5080350;27;20481;-68
2023/02/08 02:54:14;;;;;;;9.47;5.90;;;;;;;;;;5080065;27;20066;-68
2023/02/08 02:56:44;;;;;;;10.77;5.73;;;;;;;;;;5097995;27;20035;-68
2023/02/08 02:59:12;;;;;;;9.25;5.90;;;;;;;;;;5097378;27;20392;-68
2023/02/08 03:01:38;;;;;;;10.53;5.57;;;;;;;;;;5098507;27;20035;-68
2023/02/08 03:04:11;;;;;;;11.57;6.03;;;;;;;;;;5098659;27;20542;-69
2023/02/08 03:06:57;;;;;;;10.90;5.40;;;;;;;;;;5133056;27;20043;-69
2023/02/08 03:09:45;;;;;;;11.63;5.80;;;;;;;;;;5098653;27;20039;-68
2023/02/08 03:12:28;;;;;;;10.30;5.77;;;;;;;;;;5098016;27;20046;-69
2023/02/08 03:15:12;;;;;;;10.00;5.77;;;;;;;;;;5098559;27;20096;-68
2023/02/08 03:18:01;;;;;;;12.40;6.47;;;;;;;;;;5098317;27;20039;-69
2023/02/08 03:20:30;;;;;;;12.30;6.20;;;;;;;;;;5098513;27;20043;-69
2023/02/08 03:22:59;;;;;;;13.60;6.47;;;;;;;;;;5097973;27;20027;-68
2023/02/08 03:25:25;;;;;;;9.53;5.57;;;;;;;;;;5081541;27;20039;-68
2023/02/08 03:28:04;;;;;;;11.93;5.77;;;;;;;;;;5081204;27;20099;-68
2023/02/08 03:30:33;;;;;;;12.37;6.00;;;;;;;;;;5115124;27;20061;-68
2023/02/08 03:33:05;;;;;;;11.30;5.67;;;;;;;;;;5098280;27;20050;-67
2023/02/08 03:35:41;;;;;;;11.77;5.67;;;;;;;;;;5098228;27;20038;-68
2023/02/08 03:38:12;;;;;;;10.27;5.47;;;;;;;;;;5098192;27;20045;-68
2023/02/08 03:40:42;;;;;;;10.47;5.10;;;;;;;;;;5098388;27;20100;-68
2023/02/08 03:43:14;;;;;;;10.02;5.25;;;;;;;;;;5115651;27;20417;-68
2023/02/08 03:46:00;;;;;;;8.10;4.60;;;;;;;;;;5115562;27;20457;-68
2023/02/08 03:48:27;;;;;;;7.03;4.43;;;;;;;;;;5090481;27;20480;-68
2023/02/08 03:50:55;;;;;;;9.67;5.33;;;;;;;;;;5081218;27;20068;-69
2023/02/08 03:53:22;;;;;;;10.93;6.00;;;;;;;;;;5114896;27;20514;-68
2023/02/08 03:55:50;;;;;;;9.73;5.00;;;;;;;;;;5112591;27;20488;-68
2023/02/08 03:58:19;;;;;;;9.97;5.23;;;;;;;;;;5091002;28;20047;-68
2023/02/08 04:00:48;;;;;;;8.40;4.97;;;;;;;;;;5093696;27;20027;-68
2023/02/08 04:03:18;;;;;;;7.97;4.90;;;;;;;;;;5112862;28;20042;-69
2023/02/08 04:05:44;;;;;;;14.47;8.00;;;;;;;;;;5114644;28;20173;-68
2023/02/08 04:08:10;;;;;;;12.90;4.93;;;;;;;;;;5098060;28;20398;-68
2023/02/08 04:10:35;;;;;;;9.77;4.47;;;;;;;;;;5080628;28;20162;-67
2023/02/08 04:13:04;;;;;;;10.23;4.57;;;;;;;;;;5080694;28;20038;-69
2023/02/08 04:15:33;;;;;;;9.30;4.57;;;;;;;;;;5097430;27;20111;-67
2023/02/08 04:17:58;;;;;;;9.40;4.37;;;;;;;;;;5097359;28;20050;-68
2023/02/08 04:20:25;;;;;;;7.97;5.07;;;;;;;;;;5114985;28;20084;-68
2023/02/08 04:22:51;;;;;;;10.43;4.40;;;;;;;;;;5089745;28;20031;-66
2023/02/08 04:25:17;;;;;;;8.67;4.80;;;;;;;;;;5080888;28;20092;-67
2023/02/08 04:27:43;;;;;;;9.13;5.40;;;;;;;;;;5080769;28;20388;-66
2023/02/08 04:30:09;;;;;;;10.77;4.83;;;;;;;;;;5080709;28;20031;-67
2023/02/08 04:32:34;;;;;;;7.73;4.73;;;;;;;;;;5097605;28;20037;-68
2023/02/08 04:35:00;;;;;;;9.30;4.83;;;;;;;;;;5077317;28;20027;-70
2023/02/08 04:37:27;;;;;;;8.57;4.30;;;;;;;;;;5092929;28;20106;-70
2023/02/08 04:39:53;;;;;;;7.27;4.47;;;;;;;;;;5063672;28;20552;-66
2023/02/08 04:42:18;;;;;;;9.37;4.67;;;;;;;;;;5081355;28;20413;-68
2023/02/08 04:44:44;;;;;;;8.53;4.57;;;;;;;;;;5064404;28;20070;-68
2023/02/08 04:47:09;;;;;;;9.07;4.47;;;;;;;;;;5081050;28;20123;-69
2023/02/08 04:49:35;;;;;;;9.33;4.87;;;;;;;;;;5084667;28;20039;-68
2023/02/08 04:52:01;;;;;;;7.97;4.80;;;;;;;;;;5079552;28;20111;-68
2023/02/08 04:54:27;;;;;;;8.50;4.73;;;;;;;;;;5079449;28;20568;-71
2023/02/08 04:56:53;;;;;;;8.03;4.50;;;;;;;;;;5066625;28;20027;-68
2023/02/08 04:59:20;;;;;;;8.10;4.53;;;;;;;;;;5096982;28;20047;-67
2023/02/08 05:01:46;;;;;;;9.93;4.97;;;;;;;;;;5083744;28;20012;-68
2023/02/08 05:04:12;;;;;;;10.33;4.93;;;;;;;;;;5080086;28;20378;-68
2023/02/08 05:06:38;;;;;;;7.47;4.67;;;;;;;;;;5063063;28;20366;-67
2023/02/08 05:09:06;;;;;;;7.87;4.80;;;;;;;;;;5096923;28;20142;-69
2023/02/08 05:11:32;;;;;;;8.83;5.17;;;;;;;;;;5071335;27;20151;-68
2023/02/08 05:13:57;;;;;;;13.30;5.63;;;;;;;;;;5089479;27;20136;-68
2023/02/08 05:16:23;;;;;;;12.20;5.77;;;;;;;;;;5079457;27;20357;-69
2023/02/08 05:18:49;;;;;;;9.67;5.03;;;;;;;;;;5098139;27;20046;-67
2023/02/08 05:21:14;;;;;;;12.57;6.07;;;;;;;;;;5080684;27;20046;-69
2023/02/08 05:23:41;;;;;;;18.17;6.23;;;;;;;;;;5075845;27;20027;-69
2023/02/08 05:26:08;;;;;;;12.77;6.23;;;;;;;;;;5099615;27;20037;-68
2023/02/08 05:28:34;;;;;;;13.97;6.53;;;;;;;;;;5099620;27;20063;-68
2023/02/08 05:31:06;;;;;;;16.87;8.03;;;;;;;;;;5099518;27;20477;-69
2023/02/08 05:33:32;;;;;;;14.37;6.67;;;;;;;;;;5099997;27;20027;-66
2023/02/08 05:35:58;;;;;;;13.00;6.90;;;;;;;;;;5078736;28;20185;-67
2023/02/08 05:38:24;;;;;;;12.40;6.20;;;;;;;;;;5077542;28;20044;-69
2023/02/08 05:40:50;;;;;;;11.23;6.17;;;;;;;;;;5079105;28;20051;-68
2023/02/08 05:43:17;;;;;;;14.27;6.87;;;;;;;;;;5079072;28;20031;-67
2023/02/08 05:45:42;;;;;;;13.73;6.40;;;;;;;;;;5077663;28;20035;-67
2023/02/08 05:48:08;;;;;;;15.13;6.30;;;;;;;;;;5078729;28;20105;-66
2023/02/08 05:50:34;;;;;;;14.40;7.17;;;;;;;;;;5078449;28;20477;-67
2023/02/08 05:52:59;;;;;;;11.30;6.13;;;;;;;;;;5097250;27;20039;-67
2023/02/08 05:55:27;;;;;;;13.97;6.50;;;;;;;;;;5099370;27;20034;-67
2023/02/08 05:57:52;;;;;;;14.17;6.23;;;;;;;;;;5100072;27;20027;-67
2023/02/08 06:00:18;;;;;;;12.50;6.27;;;;;;;;;;5099482;27;20539;-66
2023/02/08 06:02:44;;;;;;;12.60;6.27;;;;;;;;;;5082517;27;20038;-67
2023/02/08 06:05:10;;;;;;;13.23;6.73;;;;;;;;;;5099146;27;20035;-67
2023/02/08 06:07:36;;;;;;;10.50;5.77;;;;;;;;;;5082306;27;20068;-65
2023/02/08 06:10:02;;;;;;;13.27;6.10;;;;;;;;;;5098791;27;20081;-66
2023/02/08 06:12:28;;;;;;;12.40;5.80;;;;;;;;;;5081613;27;20047;-67
2023/02/08 06:14:54;;;;;;;10.10;5.47;;;;;;;;;;5099344;27;20035;-67
2023/02/08 06:17:20;;;;;;;12.93;6.60;;;;;;;;;;5099113;27;20051;-65
2023/02/08 06:19:45;;;;;;;19.57;6.40;;;;;;;;;;5081822;27;20049;-65
2023/02/08 06:22:11;;;;;;;13.63;6.17;;;;;;;;;;5098851;27;20496;-65
2023/02/08 06:24:38;;;;;;;12.10;6.23;;;;;;;;;;5081895;27;20073;-65
2023/02/08 06:27:03;;;;;;;15.37;6.13;;;;;;;;;;5133029;27;20035;-66
2023/02/08 06:29:29;;;;;;;12.83;6.10;;;;;;;;;;5082108;27;20087;-66
2023/02/08 06:31:55;;;;;;;13.23;7.03;;;;;;;;;;5098806;27;20074;-66
2023/02/08 06:34:20;;;;;;;14.07;6.27;;;;;;;;;;5081950;27;20131;-65
2023/02/08 06:36:46;;;;;;;11.57;5.97;;;;;;;;;;5097326;27;20378;-66
2023/02/08 06:39:12;;;;;;;12.83;5.77;;;;;;;;;;5081965;27;20484;-65
2023/02/08 06:41:39;;;;;;;14.83;6.73;;;;;;;;;;5078248;28;20046;-65
2023/02/08 06:44:05;;;;;;;15.20;6.60;;;;;;;;;;5078026;28;20032;-65
2023/02/08 06:46:30;;;;;;;11.80;6.43;;;;;;;;;;5077960;28;20534;-66
2023/02/08 06:48:57;;;;;;;12.27;6.77;;;;;;;;;;5078205;28;20443;-66
2023/02/08 06:51:24;;;;;;;12.50;6.77;;;;;;;;;;5078164;28;20130;-65
2023/02/08 06:53:49;;;;;;;12.00;6.67;;;;;;;;;;5095415;28;20488;-66
2023/02/08 06:56:15;;;;;;;12.37;6.60;;;;;;;;;;5077937;28;20032;-66
2023/02/08 06:58:41;;;;;;;13.83;6.50;;;;;;;;;;5061148;28;20039;-66
2023/02/08 07:01:10;;;;;;;13.97;7.63;;;;;;;;;;5077079;28;20043;-66
2023/02/08 07:03:35;;;;;;;15.80;7.27;;;;;;;;;;5077934;28;20028;-66
2023/02/08 07:06:01;;;;;;;11.93;6.37;;;;;;;;;;5094861;28;20062;-66
2023/02/08 07:08:27;;;;;;;14.87;6.93;;;;;;;;;;5077627;28;20079;-66
2023/02/08 07:10:52;;;;;;;13.87;7.07;;;;;;;;;;5077748;28;20031;-67
2023/02/08 07:13:18;;;;;;;12.53;6.33;;;;;;;;;;5076860;28;20384;-66
2023/02/08 07:15:43;;;;;;;15.53;6.70;;;;;;;;;;5074060;28;21149;-66
2023/02/08 07:18:11;;;;;;;12.53;6.53;;;;;;;;;;5074301;28;20040;-66
2023/02/08 07:20:37;;;;;;;15.60;7.27;;;;;;;;;;5074084;28;20134;-66
2023/02/08 07:23:03;;;;;;;17.90;7.70;;;;;;;;;;5074102;28;20035;-66
2023/02/08 07:25:28;;;;;;;17.17;7.27;;;;;;;;;;5074159;28;20044;-66
2023/02/08 07:27:54;;;;;;;13.40;6.80;;;;;;;;;;5074114;28;20032;-70
2023/02/08 07:30:19;;;;;;;14.20;6.63;;;;;;;;;;5074131;28;20032;-67
2023/02/08 07:32:45;;;;;;;16.03;6.93;;;;;;;;;;5090832;28;20490;-66
2023/02/08 07:35:11;;;;;;;11.93;6.37;;;;;;;;;;5074055;28;20028;-66
2023/02/08 07:37:37;;;;;;;12.27;6.40;;;;;;;;;;5073899;28;20028;-67
2023/02/08 07:40:03;;;;;;;11.83;6.40;;;;;;;;;;5057106;28;20059;-66
2023/02/08 07:42:29;;;;;;;11.73;6.37;;;;;;;;;;5073462;28;20028;-66
2023/02/08 07:45:07;;;;;;;10.23;5.60;;;;;;;;;;5075528;28;20078;-67
2023/02/08 07:47:33;;;;;;;10.83;5.70;;;;;;;;;;5073764;28;20032;-67
2023/02/08 07:49:59;;;;;;;12.53;6.77;;;;;;;;;;5074103;28;20039;-65
2023/02/08 07:52:24;;;;;;;11.90;6.57;;;;;;;;;;5067536;28;20077;-69
2023/02/08 07:54:50;;;;;;;14.33;6.47;;;;;;;;;;5057296;28;20036;-65
2023/02/08 07:57:19;;;;;;;12.03;6.07;;;;;;;;;;5056586;28;20040;-65
2023/02/08 07:59:46;;;;;;;19.30;5.87;;;;;;;;;;5056958;28;20036;-66
2023/02/08 08:02:13;;;;;;;11.17;6.00;;;;;;;;;;5056954;28;20127;-66
2023/02/08 08:04:38;;;;;;;19.93;6.37;;;;;;;;;;5090519;28;20374;-66
2023/02/08 08:07:04;;;;;;;11.87;6.27;;;;;;;;;;5056795;28;20043;-66
2023/02/08 08:09:29;;;;;;;10.20;5.83;;;;;;;;;;5056763;28;20039;-65
2023/02/08 08:11:55;;;;;;;11.70;6.20;;;;;;;;;;5072868;28;20032;-67
2023/02/08 08:14:20;;;;;;;10.80;5.97;;;;;;;;;;5060808;28;20454;-67
2023/02/08 08:16:46;;;;;;;17.23;6.27;;;;;;;;;;5077789;28;20113;-66
2023/02/08 08:19:12;;;;;;;14.03;6.00;;;;;;;;;;5084991;28;20043;-66
2023/02/08 08:21:38;;;;;;;12.13;5.90;;;;;;;;;;5097826;28;20107;-66
2023/02/08 08:24:04;;;;;;;12.33;6.90;;;;;;;;;;5097822;28;20404;-66
2023/02/08 08:26:29;;;;;;;10.20;4.97;;;;;;;;;;5096791;28;20054;-67
2023/02/08 08:28:55;;;;;;;11.57;6.00;;;;;;;;;;5098178;28;20066;-68
2023/02/08 08:31:21;;;;;;;10.03;5.63;;;;;;;;;;5114996;28;20104;-65
2023/02/08 08:33:48;;;;;;;11.40;5.97;;;;;;;;;;5097561;28;20035;-67
2023/02/08 08:36:13;;;;;;;20.83;6.43;;;;;;;;;;5097610;28;20036;-67
2023/02/08 08:38:40;;;;;;;12.47;6.10;;;;;;;;;;5097301;28;20045;-67
2023/02/08 08:41:11;;;;;;;11.80;5.93;;;;;;;;;;5113523;28;20150;-67
2023/02/08 08:43:37;;;;;;;12.80;5.77;;;;;;;;;;5114846;28;20039;-67
2023/02/08 08:46:04;;;;;;;18.93;6.13;;;;;;;;;;5097311;28;20035;-66
2023/02/08 08:48:29;;;;;;;10.30;5.90;;;;;;;;;;5113932;28;20028;-67
2023/02/08 08:50:55;;;;;;;13.13;6.53;;;;;;;;;;5097270;28;20384;-67
2023/02/08 08:53:21;;;;;;;16.27;6.67;;;;;;;;;;5080371;28;20081;-67
2023/02/08 08:55:46;;;;;;;14.40;6.37;;;;;;;;;;5097270;28;20142;-66
2023/02/08 08:58:12;;;;;;;9.03;5.20;;;;;;;;;;5080080;28;20035;-67
2023/02/08 09:00:38;;;;;;;13.40;5.67;;;;;;;;;;5096980;28;20027;-66
2023/02/08 09:03:03;;;;;;;13.57;6.13;;;;;;;;;;5097085;28;20051;-66
2023/02/08 09:05:29;;;;;;;11.80;5.80;;;;;;;;;;5096720;28;20460;-67
2023/02/08 09:07:54;;;;;;;12.70;6.43;;;;;;;;;;5097465;28;20035;-67
2023/02/08 09:10:20;;;;;;;11.30;5.80;;;;;;;;;;5097206;28;20036;-66
2023/02/08 09:12:48;;;;;;;12.13;6.63;;;;;;;;;;5096140;28;20038;-66
2023/02/08 09:15:13;;;;;;;11.23;5.63;;;;;;;;;;5097385;27;20061;-66
2023/02/08 09:17:39;;;;;;;15.47;6.10;;;;;;;;;;5134193;27;20035;-66
2023/02/08 09:20:05;;;;;;;13.20;6.90;;;;;;;;;;5100018;27;20039;-67
2023/02/08 09:22:30;;;;;;;10.73;5.30;;;;;;;;;;5134253;27;20365;-67
2023/02/08 09:24:56;;;;;;;14.00;5.80;;;;;;;;;;5099123;27;20035;-67
2023/02/08 09:27:22;;;;;;;11.63;5.50;;;;;;;;;;5100154;27;20039;-66
2023/02/08 09:29:53;;;;;;;13.93;6.53;;;;;;;;;;5100802;27;20454;-66
2023/02/08 09:32:20;;;;;;;12.93;6.13;;;;;;;;;;5100019;27;20033;-66
2023/02/08 09:34:45;;;;;;;12.27;5.67;;;;;;;;;;5116630;27;20046;-67
2023/02/08 09:37:11;;;;;;;10.80;5.83;;;;;;;;;;5117063;27;20034;-67
2023/02/08 09:39:36;;;;;;;12.90;6.00;;;;;;;;;;5100132;27;20437;-65
2023/02/08 09:42:02;;;;;;;14.93;6.30;;;;;;;;;;5099766;27;20035;-66
2023/02/08 09:44:32;;;;;;;12.13;5.50;;;;;;;;;;5099393;27;20031;-67
2023/02/08 09:47:00;;;;;;;10.67;5.07;;;;;;;;;;5082939;27;20035;-67
2023/02/08 09:49:29;;;;;;;17.80;5.80;;;;;;;;;;5082640;27;20062;-67
2023/02/08 09:51:57;;;;;;;9.40;5.50;;;;;;;;;;5091210;27;20027;-68
2023/02/08 09:54:35;;;;;;;12.20;5.43;;;;;;;;;;5099519;27;20031;-66
2023/02/08 09:57:02;;;;;;;11.73;5.77;;;;;;;;;;5099144;27;20130;-65
2023/02/08 09:59:29;;;;;;;11.43;6.00;;;;;;;;;;5082382;27;20050;-66
2023/02/08 10:02:00;;;;;;;11.17;5.93;;;;;;;;;;5082539;27;20031;-70
2023/02/08 10:04:35;;;;;;;9.43;5.38;;;;;;;;;;5082385;27;20445;-66
2023/02/08 10:07:00;;;;;;;11.60;5.57;;;;;;;;;;5082358;27;20038;-65
2023/02/08 10:09:26;;;;;;;11.60;5.43;;;;;;;;;;5082349;27;20031;-67
2023/02/08 10:12:15;;;;;;;10.77;5.70;;;;;;;;;;5081507;27;20038;-66
2023/02/08 10:14:55;;;;;;;9.13;5.33;;;;;;;;;;5078146;27;20125;-66
2023/02/08 10:17:40;;;;;;;10.15;5.50;;;;;;;;;;5082192;27;20061;-66
2023/02/08 10:20:05;;;;;;;10.87;5.20;;;;;;;;;;5115888;27;20082;-66
2023/02/08 10:22:38;;;;;;;10.27;5.30;;;;;;;;;;5115868;27;20086;-66
2023/02/08 10:25:20;;;;;;;9.57;5.50;;;;;;;;;;5081877;27;20054;-66
2023/02/08 10:27:51;;;;;;;12.73;5.13;;;;;;;;;;5098477;27;20559;-65
2023/02/08 10:30:29;;;;;;;10.83;5.20;;;;;;;;;;5098342;27;20043;-67
2023/02/08 10:33:13;;;;;;;10.90;4.80;;;;;;;;;;5082075;27;20027;-66
2023/02/08 10:35:43;;;;;;;10.67;5.20;;;;;;;;;;5132567;27;20039;-66
2023/02/08 10:38:15;;;;;;;9.27;5.50;;;;;;;;;;5081612;27;20162;-67
2023/02/08 10:40:41;;;;;;;11.80;4.93;;;;;;;;;;5115234;27;20137;-66
2023/02/08 10:43:25;;;;;;;10.93;5.40;;;;;;;;;;5081663;27;20027;-67
2023/02/08 10:45:54;;;;;;;13.40;5.87;;;;;;;;;;5114349;27;20070;-68
2023/02/08 10:48:27;;;;;;;10.87;6.00;;;;;;;;;;5098590;27;20035;-68
2023/02/08 10:50:53;;;;;;;8.83;4.97;;;;;;;;;;5098937;27;20030;-67
2023/02/08 10:53:19;;;;;;;9.60;5.47;;;;;;;;;;5098251;27;20039;-67
2023/02/08 10:55:47;;;;;;;8.83;5.17;;;;;;;;;;5081039;27;20031;-68
2023/02/08 10:58:20;;;;;;;7.38;4.70;;;;;;;;;;5081200;27;20039;-68
2023/02/08 11:00:47;;;;;;;8.93;4.45;;;;;;;;;;5081174;27;20035;-68
2023/02/08 11:03:16;;;;;;;9.43;4.57;;;;;;;;;;5080783;27;20091;-68
2023/02/08 11:05:41;;;;;;;8.75;4.88;;;;;;;;;;5114992;27;20062;-69
2023/02/08 11:08:18;;;;;;;7.75;4.60;;;;;;;;;;5097966;27;20385;-69
2023/02/08 11:10:57;;;;;;;10.05;4.85;;;;;;;;;;5060785;28;20553;-67
2023/02/08 11:13:24;;;;;;;8.40;5.07;;;;;;;;;;5060613;28;20162;-69
2023/02/08 11:15:50;;;;;;;7.72;4.50;;;;;;;;;;5060523;28;20443;-68
2023/02/08 11:18:19;;;;;;;7.40;4.25;;;;;;;;;;5060568;28;20028;-67
2023/02/08 11:20:47;;;;;;;8.20;4.60;;;;;;;;;;5060353;28;20450;-67
2023/02/08 11:23:32;;;;;;;9.93;4.40;;;;;;;;;;5094265;28;20095;-67
2023/02/08 11:26:18;;;;;;;10.05;5.13;;;;;;;;;;5077226;28;20401;-67
2023/02/08 11:28:58;;;;;;;7.05;4.78;;;;;;;;;;5060342;28;20488;-69
2023/02/08 11:31:23;;;;;;;7.30;4.93;;;;;;;;;;5077054;28;20077;-67
2023/02/08 11:34:03;;;;;;;7.63;5.10;;;;;;;;;;5060064;28;20067;-67
2023/02/08 11:36:30;;;;;;;11.98;5.55;;;;;;;;;;5076944;28;20036;-68
2023/02/08 11:38:56;;;;;;;9.07;5.43;;;;;;;;;;5060165;28;20130;-69
2023/02/08 11:41:24;;;;;;;13.77;5.90;;;;;;;;;;5060129;28;20031;-67
2023/02/08 11:43:54;;;;;;;18.20;6.33;;;;;;;;;;5076098;27;20349;-66
2023/02/08 11:46:24;;;;;;;13.50;6.50;;;;;;;;;;5111242;27;20039;-66
2023/02/08 11:48:51;;;;;;;14.33;6.30;;;;;;;;;;5092120;27;20031;-67
2023/02/08 11:51:25;;;;;;;10.87;5.90;;;;;;;;;;5129181;27;20027;-66
2023/02/08 11:53:52;;;;;;;12.67;6.10;;;;;;;;;;5095884;27;20519;-66
2023/02/08 11:56:19;;;;;;;11.20;5.80;;;;;;;;;;5095567;27;20051;-66
2023/02/08 11:59:02;;;;;;;15.03;5.73;;;;;;;;;;5094530;28;20204;-67
2023/02/08 12:01:32;;;;;;;15.23;5.10;;;;;;;;;;5111982;27;20046;-67
2023/02/08 12:03:59;;;;;;;17.03;4.73;;;;;;;;;;5096116;27;20034;-66
2023/02/08 12:06:31;;;;;;;9.93;4.90;;;;;;;;;;5097341;27;20053;-66
2023/02/08 12:08:56;;;;;;;7.53;4.70;;;;;;;;;;5113879;28;20035;-68
2023/02/08 12:11:25;;;;;;;9.47;4.67;;;;;;;;;;5096668;28;20432;-66
2023/02/08 12:14:03;;;;;;;7.83;4.43;;;;;;;;;;5093123;28;20042;-67
2023/02/08 12:16:34;;;;;;;8.73;4.43;;;;;;;;;;5090426;28;20063;-67
2023/02/08 12:19:00;;;;;;;9.10;4.80;;;;;;;;;;5096088;28;20043;-66
2023/02/08 12:21:32;;;;;;;13.37;4.97;;;;;;;;;;5079332;28;20160;-68
2023/02/08 12:24:02;;;;;;;8.80;5.13;;;;;;;;;;5096488;28;20035;-66
2023/02/08 12:26:48;;;;;;;6.77;4.27;;;;;;;;;;5113346;28;20035;-67
2023/02/08 12:29:19;;;;;;;10.37;4.93;;;;;;;;;;5096389;28;20512;-66
2023/02/08 12:32:05;;;;;;;10.60;5.37;;;;;;;;;;5094806;28;20902;-66
2023/02/08 12:34:52;;;;;;;8.73;5.23;;;;;;;;;;5096076;28;20035;-66
2023/02/08 12:43:29;;;;;;;8.33;4.63;;;;;;;;;;5113559;28;20055;-66
2023/02/08 12:45:55;;;;;;;8.80;5.13;;;;;;;;;;5097114;28;20047;-66
2023/02/08 12:48:40;;;;;;;7.13;4.50;;;;;;;;;;5096734;28;20453;-66
2023/02/08 12:51:18;;;;;;;10.53;5.07;;;;;;;;;;5096488;28;20027;-67
2023/02/08 12:53:46;;;;;;;8.70;5.47;;;;;;;;;;5113448;28;20031;-66
2023/02/08 12:56:15;;;;;;;9.80;5.43;;;;;;;;;;5096515;28;20028;-67
2023/02/08 12:58:46;;;;;;;11.07;4.93;;;;;;;;;;5096529;28;20530;-66
2023/02/08 13:01:11;;;;;;;;;;;;;;;;;;5100362;27;20128;-66
2023/02/08 13:03:43;;;;;;;9.77;4.63;;;;;;;;;;5117463;27;20317;-66
2023/02/08 13:06:14;;;;;;;8.57;4.80;;;;;;;;;;5100571;27;20062;-66
2023/02/08 13:08:39;;;;;;;9.20;5.30;;;;;;;;;;5100301;27;20038;-66
2023/02/08 13:11:21;;;;;;;9.73;5.27;;;;;;;;;;5099891;27;20027;-67
2023/02/08 13:13:51;;;;;;;9.20;5.23;;;;;;;;;;5100179;27;20035;-65
2023/02/08 13:16:22;;;;;;;9.75;5.30;;;;;;;;;;5099798;27;20495;-65
2023/02/08 13:19:05;;;;;;;8.93;5.78;;;;;;;;;;5099937;27;20043;-66
2023/02/08 13:21:36;;;;;;;8.03;4.90;;;;;;;;;;5099937;27;20487;-66
2023/02/08 13:24:05;;;;;;;9.67;5.20;;;;;;;;;;5100009;27;20031;-66
2023/02/08 13:26:33;;;;;;;10.17;5.20;;;;;;;;;;5116669;27;20379;-67
2023/02/08 13:29:01;;;;;;;9.53;4.90;;;;;;;;;;5100139;27;20044;-67
2023/02/08 13:31:41;;;;;;;8.80;4.83;;;;;;;;;;5116982;27;20078;-67
2023/02/08 13:34:25;;;;;;;10.40;5.03;;;;;;;;;;5117091;27;20050;-66
2023/02/08 13:36:54;;;;;;;11.07;4.80;;;;;;;;;;5099767;27;20038;-66
2023/02/08 13:39:29;;;;;;;11.43;5.60;;;;;;;;;;5099614;27;20047;-66
2023/02/08 13:41:55;;;;;;;9.60;5.10;;;;;;;;;;5116888;27;20041;-66
2023/02/08 13:44:25;;;;;;;9.63;5.37;;;;;;;;;;5099534;27;20035;-67
2023/02/08 13:46:51;;;;;;;11.15;4.75;;;;;;;;;;5099601;27;20087;-66
2023/02/08 13:49:36;;;;;;;9.87;4.80;;;;;;;;;;5099339;27;20031;-66
2023/02/08 13:52:01;;;;;;;11.37;5.17;;;;;;;;;;5098308;27;20059;-66
2023/02/08 13:54:27;;;;;;;10.93;5.77;;;;;;;;;;5082713;27;20123;-66
2023/02/08 13:56:53;;;;;;;9.80;5.57;;;;;;;;;;5099695;27;20162;-66
2023/02/08 13:59:34;;;;;;;13.10;5.87;;;;;;;;;;5082340;27;20062;-66
2023/02/08 14:02:13;;;;;;;10.43;5.72;;;;;;;;;;5099379;27;20096;-66
2023/02/08 14:04:42;;;;;;;12.37;5.67;;;;;;;;;;5098969;27;20035;-65
2023/02/08 14:07:08;;;;;;;12.07;5.50;;;;;;;;;;5116010;27;20039;-67
2023/02/08 14:09:37;;;;;;;12.73;5.20;;;;;;;;;;5098999;27;20042;-66
2023/02/08 14:12:05;;;;;;;10.77;5.13;;;;;;;;;;5097695;27;20054;-66
2023/02/08 14:14:36;;;;;;;12.60;5.57;;;;;;;;;;5082382;27;20031;-67
2023/02/08 14:17:20;;;;;;;11.10;5.33;;;;;;;;;;5133750;27;20544;-67
2023/02/08 14:19:55;;;;;;;19.70;9.27;;;;;;;;;;5097866;27;20137;-66
2023/02/08 14:22:22;;;;;;;10.00;5.53;;;;;;;;;;5111535;27;20043;-66
2023/02/08 14:24:48;;;;;;;11.93;5.73;;;;;;;;;;5097042;27;20718;-67
2023/02/08 14:27:37;;;;;;;12.87;5.83;;;;;;;;;;5094523;28;20024;-66
2023/02/08 14:30:15;;;;;;;9.77;5.13;;;;;;;;;;5072265;27;20346;-66
2023/02/08 14:32:53;;;;;;;14.63;5.60;;;;;;;;;;5094234;27;20092;-67
2023/02/08 14:35:22;;;;;;;10.67;5.20;;;;;;;;;;5130684;27;20035;-66
2023/02/08 14:37:49;;;;;;;11.30;5.70;;;;;;;;;;5093829;28;20053;-67
2023/02/08 14:40:20;;;;;;;7.83;4.90;;;;;;;;;;5061367;28;20423;-66
2023/02/08 14:43:00;;;;;;;8.43;4.83;;;;;;;;;;5061455;28;20028;-67
2023/02/08 14:45:26;;;;;;;10.20;5.50;;;;;;;;;;5061809;28;20126;-67
2023/02/08 14:47:54;;;;;;;10.00;5.43;;;;;;;;;;5061469;28;20581;-65
2023/02/08 14:50:22;;;;;;;10.67;5.53;;;;;;;;;;5061322;28;20036;-65
2023/02/08 14:52:54;;;;;;;10.43;5.23;;;;;;;;;;5094812;28;20115;-66